createdAt,value
2022-12-13T00:02:19.758Z,18.90
2022-12-13T00:04:56.024Z,17.40
2022-12-13T00:07:31.999Z,16.50
2022-12-13T00:10:09.446Z,14.40
2022-12-13T00:12:45.693Z,16.60
2022-12-13T00:15:22.041Z,16.20
2022-12-13T00:17:58.522Z,18.20
2022-12-13T00:20:34.922Z,20.30
2022-12-13T00:23:11.299Z,17.50
2022-12-13T00:25:47.454Z,15.50
2022-12-13T00:28:24.760Z,15.20
2022-12-13T00:31:20.076Z,20.30
2022-12-13T00:34:00.658Z,19.50
2022-12-13T00:36:36.945Z,17.70
2022-12-13T00:39:14.448Z,16.40
2022-12-13T00:41:51.029Z,15.50
2022-12-13T00:44:28.995Z,16.70
2022-12-13T00:47:05.061Z,15.20
2022-12-13T00:49:41.499Z,16.90
2022-12-13T00:52:17.557Z,15.60
2022-12-13T00:54:54.632Z,14.50
2022-12-13T00:57:32.075Z,14.10
2022-12-13T01:00:11.564Z,13.50
2022-12-13T01:02:48.562Z,22.20
2022-12-13T01:05:47.537Z,24.50
2022-12-13T01:08:21.229Z,22.60
2022-12-13T01:10:57.921Z,19.80
2022-12-13T01:13:34.265Z,24.80
2022-12-13T01:18:44.105Z,15.90
2022-12-13T01:21:23.224Z,13.80
2022-12-13T01:24:05.585Z,12.60
2022-12-13T01:26:42.491Z,13.40
2022-12-13T01:29:20.375Z,13.40
2022-12-13T01:31:56.976Z,12.70
2022-12-13T01:34:33.402Z,13.60
2022-12-13T01:37:09.523Z,17.90
2022-12-13T01:39:45.686Z,15.00
2022-12-13T01:42:25.666Z,15.10
2022-12-13T01:45:19.992Z,12.40
2022-12-13T01:48:01.554Z,15.90
2022-12-13T01:50:44.996Z,13.30
2022-12-13T01:53:25.419Z,15.30
2022-12-13T01:56:08.900Z,16.40
2022-12-13T01:58:46.917Z,16.40
2022-12-13T02:01:24.923Z,17.70
2022-12-13T02:04:01.369Z,16.80
2022-12-13T02:06:41.760Z,12.40
2022-12-13T02:09:19.447Z,19.30
2022-12-13T02:11:56.596Z,19.60
2022-12-13T02:14:33.065Z,18.00
2022-12-13T02:17:19.445Z,16.70
2022-12-13T02:20:31.865Z,16.60
2022-12-13T02:23:52.135Z,15.40
2022-12-13T02:26:59.798Z,17.30
2022-12-13T02:30:22.246Z,16.50
2022-12-13T02:33:37.947Z,15.30
2022-12-13T02:36:27.617Z,15.20
2022-12-13T02:39:13.690Z,19.40
2022-12-13T02:41:57.491Z,19.80
2022-12-13T02:44:40.622Z,20.70
2022-12-13T02:47:23.886Z,16.60
2022-12-13T02:50:06.281Z,16.10
2022-12-13T02:52:46.911Z,15.10
2022-12-13T02:55:28.103Z,16.80
2022-12-13T02:58:05.423Z,14.70
2022-12-13T03:00:59.377Z,15.70
2022-12-13T03:03:51.226Z,13.70
2022-12-13T03:06:49.423Z,12.90
2022-12-13T03:09:51.465Z,10.40
2022-12-13T03:12:55.795Z,14.00
2022-12-13T03:15:38.209Z,12.70
2022-12-13T03:18:20.417Z,14.70
2022-12-13T03:20:58.966Z,12.60
2022-12-13T03:23:35.918Z,15.50
2022-12-13T03:26:16.621Z,10.10
2022-12-13T03:28:52.842Z,12.10
2022-12-13T03:31:29.304Z,13.20
2022-12-13T03:34:06.178Z,12.40
2022-12-13T03:36:43.203Z,13.50
2022-12-13T03:39:24.081Z,17.00
2022-12-13T03:42:25.709Z,16.00
2022-12-13T03:45:02.484Z,11.80
2022-12-13T03:47:39.327Z,12.10
2022-12-13T03:50:27.122Z,15.40
2022-12-13T03:53:07.990Z,12.50
2022-12-13T03:56:01.019Z,13.40
2022-12-13T03:58:39.136Z,11.80
2022-12-13T04:01:18.656Z,14.30
2022-12-13T04:03:55.087Z,12.20
2022-12-13T04:06:33.183Z,12.00
2022-12-13T04:09:10.129Z,12.00
2022-12-13T04:12:03.111Z,14.80
2022-12-13T04:14:40.135Z,13.00
2022-12-13T04:17:16.490Z,10.90
2022-12-13T04:19:53.234Z,10.90
2022-12-13T04:22:30.624Z,10.10
2022-12-13T04:25:07.854Z,9.70
2022-12-13T04:27:44.637Z,8.10
2022-12-13T04:30:22.255Z,11.50
2022-12-13T04:32:59.578Z,13.50
2022-12-13T04:35:36.209Z,14.30
2022-12-13T04:38:11.922Z,16.50
2022-12-13T04:40:51.910Z,12.80
2022-12-13T04:43:28.516Z,11.50
2022-12-13T04:46:05.486Z,12.90
2022-12-13T04:48:41.947Z,11.40
2022-12-13T04:51:18.810Z,9.20
2022-12-13T04:53:55.876Z,11.30
2022-12-13T04:56:51.852Z,13.10
2022-12-13T04:59:28.581Z,9.60
2022-12-13T05:02:05.060Z,10.50
2022-12-13T05:04:45.165Z,14.70
2022-12-13T05:07:21.848Z,14.10
2022-12-13T05:09:58.490Z,16.00
2022-12-13T05:12:35.478Z,12.80
2022-12-13T05:15:16.191Z,13.10
2022-12-13T05:17:52.586Z,11.00
2022-12-13T05:20:29.019Z,9.00
2022-12-13T05:23:06.454Z,9.50
2022-12-13T05:25:43.167Z,9.50
2022-12-13T05:28:27.692Z,9.50
2022-12-13T05:31:23.489Z,10.20
2022-12-13T05:34:01.828Z,8.30
2022-12-13T05:36:38.770Z,11.40
2022-12-13T05:39:29.200Z,10.20
2022-12-13T05:42:07.095Z,11.70
2022-12-13T05:44:43.454Z,14.20
2022-12-13T05:47:19.648Z,13.70
2022-12-13T05:49:56.172Z,11.10
2022-12-13T05:52:33.168Z,10.20
2022-12-13T05:55:10.994Z,11.00
2022-12-13T05:57:50.054Z,8.40
2022-12-13T06:00:30.850Z,9.50
2022-12-13T06:03:07.858Z,9.80
2022-12-13T06:05:44.613Z,9.80
2022-12-13T06:08:24.803Z,10.40
2022-12-13T06:11:10.859Z,13.30
2022-12-13T06:14:01.070Z,13.10
2022-12-13T06:16:37.740Z,10.00
2022-12-13T06:19:14.354Z,12.00
2022-12-13T06:21:51.310Z,8.90
2022-12-13T06:24:30.030Z,9.20
2022-12-13T06:27:06.621Z,9.00
2022-12-13T06:29:43.397Z,10.00
2022-12-13T06:32:20.099Z,9.90
2022-12-13T06:34:56.805Z,11.40
2022-12-13T06:37:34.420Z,10.50
2022-12-13T06:40:21.483Z,10.30
2022-12-13T06:42:59.850Z,9.40
2022-12-13T06:45:36.224Z,12.90
2022-12-13T06:48:18.757Z,12.40
2022-12-13T06:50:57.842Z,11.30
2022-12-13T06:53:37.431Z,11.00
2022-12-13T06:56:16.301Z,13.80
2022-12-13T06:58:52.460Z,9.60
2022-12-13T07:01:38.073Z,10.30
2022-12-13T07:04:28.750Z,9.30
2022-12-13T07:07:07.114Z,11.20
2022-12-13T07:09:45.001Z,9.10
2022-12-13T07:12:21.719Z,9.80
2022-12-13T07:14:58.522Z,7.20
2022-12-13T07:17:35.360Z,11.60
2022-12-13T07:20:32.749Z,12.60
2022-12-13T07:23:08.700Z,15.20
2022-12-13T07:25:45.252Z,17.40
2022-12-13T07:28:22.231Z,29.80
2022-12-13T07:30:58.608Z,18.20
2022-12-13T07:33:35.171Z,13.40
2022-12-13T07:36:18.382Z,14.30
2022-12-13T07:38:58.703Z,10.70
2022-12-13T07:41:35.624Z,15.50
2022-12-13T07:44:12.964Z,14.80
2022-12-13T07:46:49.711Z,11.10
2022-12-13T07:49:25.637Z,11.30
2022-12-13T07:52:02.624Z,13.90
2022-12-13T07:54:39.111Z,15.20
2022-12-13T07:57:15.667Z,18.70
2022-12-13T07:59:52.984Z,23.30
2022-12-13T08:02:29.745Z,18.20
2022-12-13T08:05:25.812Z,16.70
2022-12-13T08:08:02.428Z,15.20
2022-12-13T08:10:39.365Z,17.40
2022-12-13T08:13:16.073Z,19.60
2022-12-13T08:15:53.097Z,20.40
2022-12-13T08:18:29.605Z,15.70
2022-12-13T08:21:51.920Z,17.80
2022-12-13T08:24:12.501Z,17.50
2022-12-13T08:26:52.703Z,11.10
2022-12-13T08:29:34.464Z,12.10
2022-12-13T08:32:14.733Z,11.20
2022-12-13T08:34:50.202Z,17.90
2022-12-13T08:37:26.458Z,17.20
2022-12-13T08:40:04.339Z,16.80
2022-12-13T08:42:40.585Z,13.80
2022-12-13T08:45:23.967Z,12.60
2022-12-13T08:48:02.064Z,11.90
2022-12-13T08:50:38.530Z,13.20
2022-12-13T08:53:29.617Z,13.30
2022-12-13T08:56:11.649Z,11.30
2022-12-13T08:58:52.523Z,16.60
2022-12-13T09:01:29.095Z,15.20
2022-12-13T09:04:05.526Z,12.50
2022-12-13T09:06:44.809Z,12.60
2022-12-13T09:09:21.328Z,18.90
2022-12-13T09:11:59.389Z,17.90
2022-12-13T09:14:37.760Z,14.40
2022-12-13T09:17:24.004Z,12.50
2022-12-13T09:20:01.648Z,11.80
2022-12-13T09:22:47.830Z,11.80
2022-12-13T09:25:24.956Z,11.50
2022-12-13T09:28:03.679Z,10.70
2022-12-13T09:30:40.636Z,12.90
2022-12-13T09:33:17.251Z,14.50
2022-12-13T09:36:08.640Z,11.40
2022-12-13T09:38:44.868Z,12.70
2022-12-13T09:41:31.623Z,12.00
2022-12-13T09:44:32.677Z,11.90
2022-12-13T09:47:23.858Z,13.30
2022-12-13T09:50:04.510Z,14.60
2022-12-13T09:52:47.220Z,13.50
2022-12-13T09:55:34.560Z,16.90
2022-12-13T09:58:20.698Z,15.10
2022-12-13T10:01:00.930Z,11.90
2022-12-13T10:03:37.959Z,14.70
2022-12-13T10:06:23.887Z,14.40
2022-12-13T10:09:03.234Z,13.40
2022-12-13T10:11:39.045Z,12.40
2022-12-13T10:14:22.553Z,15.70
2022-12-13T10:17:05.076Z,17.40
2022-12-13T10:19:46.640Z,17.50
2022-12-13T10:22:25.087Z,19.30
2022-12-13T10:25:03.842Z,19.10
2022-12-13T10:27:44.196Z,21.80
2022-12-13T10:30:29.128Z,16.40
2022-12-13T10:33:08.353Z,17.90
2022-12-13T10:35:47.486Z,16.40
2022-12-13T10:38:37.099Z,15.30
2022-12-13T10:41:34.480Z,11.90
2022-12-13T10:44:27.792Z,14.30
2022-12-13T10:47:20.804Z,11.00
2022-12-13T10:50:01.401Z,13.40
2022-12-13T10:52:44.668Z,13.70
2022-12-13T10:55:34.801Z,13.40
2022-12-13T10:58:20.648Z,14.10
2022-12-13T11:01:10.701Z,12.70
2022-12-13T11:04:02.048Z,12.90
2022-12-13T11:06:49.321Z,14.10
2022-12-13T11:09:38.806Z,11.30
2022-12-13T11:12:25.064Z,15.40
2022-12-13T11:15:06.383Z,13.60
2022-12-13T11:17:53.859Z,14.80
2022-12-13T11:20:33.226Z,12.10
2022-12-13T11:23:23.063Z,11.90
2022-12-13T11:26:07.693Z,11.70
2022-12-13T11:29:25.816Z,10.60
2022-12-13T11:32:13.067Z,11.10
2022-12-13T11:35:11.650Z,13.30
2022-12-13T11:38:00.079Z,14.30
2022-12-13T11:40:44.979Z,12.40
2022-12-13T11:43:35.839Z,12.10
2022-12-13T11:46:22.848Z,8.70
2022-12-13T11:49:06.657Z,12.60
2022-12-13T11:51:53.202Z,10.00
2022-12-13T11:54:38.613Z,14.20
2022-12-13T11:57:30.300Z,10.60
2022-12-13T12:00:33.794Z,10.70
2022-12-13T12:03:29.757Z,12.40
2022-12-13T12:06:16.714Z,10.10
2022-12-13T12:09:02.279Z,11.90
2022-12-13T12:11:46.315Z,14.00
2022-12-13T12:14:34.040Z,10.30
2022-12-13T12:17:13.779Z,11.60
2022-12-13T12:19:55.380Z,11.20
2022-12-13T12:22:48.074Z,8.90
2022-12-13T12:25:46.902Z,7.70
2022-12-13T12:28:45.266Z,11.70
2022-12-13T12:31:32.692Z,9.40
2022-12-13T12:34:27.225Z,9.70
2022-12-13T12:37:17.824Z,9.40
2022-12-13T12:40:46.200Z,12.40
2022-12-13T12:43:39.880Z,10.10
2022-12-13T12:50:23.644Z,11.10
2022-12-13T12:53:27.822Z,10.90
2022-12-13T12:56:19.981Z,11.20
2022-12-13T12:59:06.576Z,10.90
2022-12-13T13:02:03.009Z,12.80
2022-12-13T13:04:48.196Z,10.60
2022-12-13T13:07:39.747Z,11.70
2022-12-13T13:10:26.075Z,10.40
2022-12-13T13:13:32.897Z,8.90
2022-12-13T13:16:03.659Z,10.00
2022-12-13T13:19:32.138Z,13.20
2022-12-13T13:22:42.911Z,10.30
2022-12-13T13:25:48.804Z,12.50
2022-12-13T13:28:33.942Z,9.90
2022-12-13T13:31:12.856Z,10.70
2022-12-13T13:34:00.164Z,9.90
2022-12-13T13:36:57.272Z,11.30
2022-12-13T13:40:29.917Z,12.10
2022-12-13T13:43:19.703Z,14.10
2022-12-13T13:46:14.502Z,10.60
2022-12-13T13:49:05.310Z,9.20
2022-12-13T13:52:26.404Z,12.80
2022-12-13T13:55:46.950Z,11.70
2022-12-13T13:59:20.431Z,12.30
2022-12-13T14:02:59.615Z,17.90
2022-12-13T14:06:34.891Z,14.40
2022-12-13T14:09:46.638Z,17.30
2022-12-13T14:13:02.717Z,16.30
2022-12-13T14:16:25.621Z,10.40
2022-12-13T14:22:42.746Z,18.70
2022-12-13T14:25:52.657Z,17.10
2022-12-13T14:28:51.414Z,13.10
2022-12-13T14:31:42.828Z,14.90
2022-12-13T14:34:29.470Z,15.30
2022-12-13T14:37:08.940Z,17.90
2022-12-13T14:39:49.305Z,18.40
2022-12-13T14:42:36.223Z,15.50
2022-12-13T14:45:34.089Z,16.60
2022-12-13T14:48:28.741Z,16.60
2022-12-13T14:51:06.601Z,12.50
2022-12-13T14:53:45.955Z,12.00
2022-12-13T14:56:28.720Z,11.10
2022-12-13T14:59:13.862Z,16.10
2022-12-13T15:01:59.754Z,15.10
2022-12-13T15:04:38.877Z,15.80
2022-12-13T15:07:24.987Z,13.70
2022-12-13T15:10:07.220Z,14.50
2022-12-13T15:12:49.653Z,13.00
2022-12-13T15:15:32.652Z,16.00
2022-12-13T15:18:25.949Z,18.90
2022-12-13T15:21:28.102Z,20.20
2022-12-13T15:24:14.153Z,14.60
2022-12-13T15:26:52.230Z,14.20
2022-12-13T15:29:31.004Z,15.60
2022-12-13T15:32:07.949Z,17.20
2022-12-13T15:34:45.390Z,15.10
2022-12-13T15:37:32.136Z,14.80
2022-12-13T15:40:17.681Z,12.90
2022-12-13T15:42:56.095Z,13.10
2022-12-13T15:45:37.229Z,12.40
2022-12-13T15:48:28.649Z,15.20
2022-12-13T15:51:29.711Z,14.00
2022-12-13T15:54:23.685Z,19.40
2022-12-13T15:57:25.225Z,15.80
2022-12-13T16:00:30.762Z,18.60
2022-12-13T16:03:15.280Z,16.50
2022-12-13T16:05:56.614Z,18.90
2022-12-13T16:08:39.060Z,19.60
2022-12-13T16:11:16.840Z,20.20
2022-12-13T16:14:25.822Z,18.90
2022-12-13T16:17:08.625Z,12.70
2022-12-13T16:19:46.022Z,14.90
2022-12-13T16:22:24.342Z,17.10
2022-12-13T16:25:00.770Z,21.30
2022-12-13T16:27:38.270Z,16.60
2022-12-13T16:30:27.545Z,19.50
2022-12-13T16:33:26.131Z,22.00
2022-12-13T16:36:00.807Z,21.90
2022-12-13T16:38:37.521Z,21.80
2022-12-13T16:41:15.669Z,22.30
2022-12-13T16:43:58.117Z,25.10
2022-12-13T16:47:17.277Z,21.60
2022-12-13T16:49:33.092Z,19.70
2022-12-13T16:52:10.122Z,22.50
2022-12-13T16:54:46.597Z,23.10
2022-12-13T16:57:23.357Z,19.10
2022-12-13T17:00:00.601Z,20.80
2022-12-13T17:02:37.602Z,23.00
2022-12-13T17:05:16.702Z,19.70
2022-12-13T17:07:53.201Z,20.70
2022-12-13T17:10:29.652Z,21.90
2022-12-13T17:13:06.680Z,20.50
2022-12-13T17:15:43.841Z,17.30
2022-12-13T17:18:21.334Z,22.70
2022-12-13T17:20:58.066Z,19.90
2022-12-13T17:23:35.863Z,21.60
2022-12-13T17:26:16.498Z,18.80
2022-12-13T17:29:05.353Z,19.40
2022-12-13T17:31:44.993Z,16.30
2022-12-13T17:34:21.781Z,20.80
2022-12-13T17:36:58.688Z,23.30
2022-12-13T17:39:35.022Z,19.70
2022-12-13T17:42:12.349Z,23.20
2022-12-13T17:44:48.974Z,21.60
2022-12-13T17:47:24.897Z,21.80
2022-12-13T17:50:01.506Z,22.60
2022-12-13T17:52:38.742Z,24.00
2022-12-13T17:55:18.571Z,23.60
2022-12-13T17:57:59.770Z,22.90
2022-12-13T18:00:40.933Z,26.10
2022-12-13T18:03:17.305Z,22.80
2022-12-13T18:06:03.677Z,23.20
2022-12-13T18:08:53.451Z,23.80
2022-12-13T18:11:34.356Z,18.80
2022-12-13T18:14:12.620Z,16.80
2022-12-13T18:16:49.427Z,22.80
2022-12-13T18:19:30.195Z,18.30
2022-12-13T18:22:06.378Z,23.60
2022-12-13T18:24:43.488Z,19.10
2022-12-13T18:27:19.806Z,22.50
2022-12-13T18:29:56.421Z,26.60
2022-12-13T18:32:32.851Z,20.90
2022-12-13T18:35:10.080Z,20.40
2022-12-13T18:37:46.687Z,18.90
2022-12-13T18:40:24.283Z,18.60
2022-12-13T18:43:01.190Z,19.80
2022-12-13T18:45:38.043Z,16.70
2022-12-13T18:48:16.518Z,17.70
2022-12-13T18:50:53.501Z,17.90
2022-12-13T18:53:31.116Z,19.80
2022-12-13T18:56:18.202Z,27.20
2022-12-13T18:58:56.004Z,23.00
2022-12-13T19:01:32.628Z,21.00
2022-12-13T19:04:09.570Z,22.70
2022-12-13T19:06:46.728Z,20.10
2022-12-13T19:09:23.531Z,17.00
2022-12-13T19:12:00.311Z,16.70
2022-12-13T19:14:37.690Z,31.00
2022-12-13T19:17:14.115Z,48.20
2022-12-13T19:19:51.015Z,61.50
2022-12-13T19:22:26.984Z,105.60
2022-12-13T19:25:03.862Z,88.10
2022-12-13T19:27:40.346Z,44.30
2022-12-13T19:30:23.842Z,24.70
2022-12-13T19:33:00.529Z,26.00
2022-12-13T19:35:36.932Z,30.00
2022-12-13T19:38:14.197Z,19.90
2022-12-13T19:40:51.349Z,29.50
2022-12-13T19:43:28.574Z,29.00
2022-12-13T19:46:05.276Z,22.70
2022-12-13T19:48:42.020Z,27.70
2022-12-13T19:51:17.629Z,23.30
2022-12-13T19:53:53.651Z,26.40
2022-12-13T19:56:30.345Z,27.60
2022-12-13T19:59:06.979Z,25.60
2022-12-13T20:01:43.942Z,24.10
2022-12-13T20:04:20.084Z,25.10
2022-12-13T20:06:56.538Z,25.30
2022-12-13T20:09:32.996Z,24.20
2022-12-13T20:12:11.631Z,21.90
2022-12-13T20:14:48.078Z,30.60
2022-12-13T20:17:24.569Z,23.40
2022-12-13T20:20:01.630Z,25.50
2022-12-13T20:22:38.648Z,24.40
2022-12-13T20:25:17.725Z,24.50
2022-12-13T20:27:54.678Z,25.70
2022-12-13T20:30:32.032Z,23.20
2022-12-13T20:33:08.320Z,19.60
2022-12-13T20:36:15.119Z,20.00
2022-12-13T20:38:44.073Z,21.10
2022-12-13T20:41:20.508Z,23.00
2022-12-13T20:44:00.505Z,23.20
2022-12-13T20:46:37.311Z,28.70
2022-12-13T20:49:14.533Z,26.50
2022-12-13T20:51:51.027Z,22.90
2022-12-13T20:54:27.557Z,26.80
2022-12-13T20:57:04.237Z,28.40
2022-12-13T20:59:40.570Z,30.50
2022-12-13T21:02:17.639Z,28.00
2022-12-13T21:04:53.924Z,28.30
2022-12-13T21:07:48.218Z,32.30
2022-12-13T21:10:25.213Z,28.50
2022-12-13T21:13:01.986Z,27.00
2022-12-13T21:15:38.905Z,27.40
2022-12-13T21:18:15.565Z,24.80
2022-12-13T21:20:51.717Z,24.30
2022-12-13T21:23:29.251Z,30.10
2022-12-13T21:26:05.638Z,29.80
2022-12-13T21:28:42.479Z,27.40
2022-12-13T21:31:23.601Z,24.40
2022-12-13T21:34:02.018Z,26.60
2022-12-13T21:36:40.883Z,25.80
2022-12-13T21:39:20.351Z,28.20
2022-12-13T21:41:56.888Z,23.50
2022-12-13T21:44:33.644Z,24.10
2022-12-13T21:47:12.648Z,25.60
2022-12-13T21:49:49.782Z,24.20
2022-12-13T21:52:26.499Z,20.90
2022-12-13T21:55:30.468Z,23.30
2022-12-13T21:58:15.859Z,18.30
2022-12-13T22:00:54.082Z,25.40
2022-12-13T22:03:30.850Z,27.60
2022-12-13T22:06:08.029Z,21.70
2022-12-13T22:08:44.629Z,27.40
2022-12-13T22:11:21.878Z,25.30
2022-12-13T22:14:00.292Z,24.90
2022-12-13T22:16:37.389Z,26.70
2022-12-13T22:19:14.009Z,24.20
2022-12-13T22:21:51.217Z,22.60
2022-12-13T22:24:28.476Z,26.80
2022-12-13T22:27:05.697Z,24.80
2022-12-13T22:29:42.510Z,21.60
2022-12-13T22:32:18.539Z,24.30
2022-12-13T22:34:55.034Z,23.90
2022-12-13T22:37:32.288Z,21.50
2022-12-13T22:40:11.160Z,23.20
2022-12-13T22:42:48.501Z,26.50
2022-12-13T22:45:25.104Z,24.10
2022-12-13T22:48:01.186Z,33.30
2022-12-13T22:50:37.854Z,28.00
2022-12-13T22:53:15.149Z,21.20
2022-12-13T22:55:51.512Z,20.70
2022-12-13T22:58:28.795Z,19.80
2022-12-13T23:01:12.376Z,26.40
2022-12-13T23:03:50.538Z,21.50
2022-12-13T23:06:29.292Z,15.60
2022-12-13T23:09:07.728Z,17.40
2022-12-13T23:12:01.635Z,24.10
2022-12-13T23:14:38.785Z,22.80
2022-12-13T23:17:14.842Z,25.20
2022-12-13T23:19:53.409Z,21.60
2022-12-13T23:22:31.553Z,22.40
2022-12-13T23:25:10.109Z,22.80
2022-12-13T23:27:47.393Z,21.70
2022-12-13T23:30:26.272Z,17.40
2022-12-13T23:33:03.059Z,15.20
2022-12-13T23:35:40.226Z,15.30
2022-12-13T23:38:17.368Z,21.80
2022-12-13T23:40:54.455Z,22.70
2022-12-13T23:43:32.461Z,20.60
2022-12-13T23:46:11.128Z,21.10
2022-12-13T23:48:48.840Z,21.20
2022-12-13T23:51:25.902Z,20.70
2022-12-13T23:54:02.173Z,20.20
2022-12-13T23:56:38.521Z,18.00
2022-12-13T23:59:15.230Z,23.90
